createdAt,value
2022-10-18T00:00:05.306Z,11.46
2022-10-18T00:01:05.316Z,11.44
2022-10-18T00:02:05.371Z,11.43
2022-10-18T00:03:05.320Z,11.42
2022-10-18T00:04:05.343Z,11.40
2022-10-18T00:05:05.350Z,11.37
2022-10-18T00:06:05.354Z,11.36
2022-10-18T00:07:05.341Z,11.36
2022-10-18T00:08:05.375Z,11.36
2022-10-18T00:09:05.344Z,11.33
2022-10-18T00:10:05.377Z,11.35
2022-10-18T00:11:05.344Z,11.35
2022-10-18T00:12:05.347Z,11.35
2022-10-18T00:13:05.342Z,11.35
2022-10-18T00:14:05.349Z,11.35
2022-10-18T00:15:05.372Z,11.35
2022-10-18T00:16:05.357Z,11.33
2022-10-18T00:17:58.995Z,11.32
2022-10-18T00:18:59.996Z,11.25
2022-10-18T00:19:59.976Z,11.25
2022-10-18T00:20:59.998Z,11.27
2022-10-18T00:21:59.958Z,11.28
2022-10-18T00:22:59.948Z,11.28
2022-10-18T00:23:59.936Z,11.27
2022-10-18T00:24:59.929Z,11.27
2022-10-18T00:25:59.914Z,11.28
2022-10-18T00:26:59.945Z,11.27
2022-10-18T00:27:59.893Z,11.25
2022-10-18T00:28:59.912Z,11.27
2022-10-18T00:29:59.871Z,11.25
2022-10-18T00:30:59.868Z,11.27
2022-10-18T00:31:59.851Z,11.28
2022-10-18T00:32:59.866Z,11.28
2022-10-18T00:33:59.843Z,11.27
2022-10-18T00:34:59.821Z,11.27
2022-10-18T00:35:59.835Z,11.27
2022-10-18T00:36:59.801Z,11.28
2022-10-18T00:37:59.786Z,11.27
2022-10-18T00:38:59.780Z,11.27
2022-10-18T00:39:59.768Z,11.24
2022-10-18T00:40:59.757Z,11.22
2022-10-18T00:41:59.766Z,11.19
2022-10-18T00:42:59.739Z,11.17
2022-10-18T00:43:59.726Z,11.14
2022-10-18T00:44:59.731Z,11.11
2022-10-18T00:45:59.701Z,11.11
2022-10-18T00:46:59.693Z,11.14
2022-10-18T00:47:59.698Z,11.11
2022-10-18T00:48:59.714Z,11.10
2022-10-18T00:49:59.669Z,11.10
2022-10-18T00:50:59.667Z,11.10
2022-10-18T00:51:59.638Z,11.10
2022-10-18T00:52:59.629Z,11.09
2022-10-18T00:53:59.640Z,11.09
2022-10-18T00:54:59.613Z,11.07
2022-10-18T00:55:59.601Z,11.07
2022-10-18T00:56:59.597Z,11.07
2022-10-18T00:57:59.581Z,11.04
2022-10-18T00:58:59.592Z,11.06
2022-10-18T00:59:59.554Z,11.03
2022-10-18T01:00:59.547Z,11.02
2022-10-18T01:01:59.716Z,11.02
2022-10-18T01:02:59.524Z,11.00
2022-10-18T01:03:59.542Z,11.02
2022-10-18T01:04:59.527Z,11.00
2022-10-18T01:05:59.506Z,11.00
2022-10-18T01:06:59.484Z,10.99
2022-10-18T01:07:59.468Z,10.97
2022-10-18T01:08:59.484Z,10.94
2022-10-18T01:09:59.450Z,10.94
2022-10-18T01:10:59.458Z,10.96
2022-10-18T01:11:59.430Z,10.94
2022-10-18T01:12:59.443Z,10.91
2022-10-18T01:13:59.411Z,10.89
2022-10-18T01:14:59.423Z,10.88
2022-10-18T01:15:59.403Z,10.88
2022-10-18T01:16:59.375Z,10.88
2022-10-18T01:17:59.373Z,10.86
2022-10-18T01:18:59.360Z,10.86
2022-10-18T01:19:59.346Z,10.85
2022-10-18T01:20:59.331Z,10.82
2022-10-18T01:21:59.347Z,10.85
2022-10-18T01:22:59.310Z,10.86
2022-10-18T01:23:59.302Z,10.86
2022-10-18T01:24:59.339Z,10.86
2022-10-18T01:25:59.281Z,10.85
2022-10-18T01:26:59.309Z,10.85
2022-10-18T01:27:59.273Z,10.84
2022-10-18T01:28:59.310Z,10.82
2022-10-18T01:29:59.238Z,10.85
2022-10-18T01:30:59.237Z,10.85
2022-10-18T01:31:59.660Z,10.85
2022-10-18T01:32:59.221Z,10.85
2022-10-18T01:33:59.303Z,10.82
2022-10-18T01:34:59.182Z,10.84
2022-10-18T01:35:59.186Z,10.79
2022-10-18T01:36:59.161Z,10.78
2022-10-18T01:37:59.166Z,10.76
2022-10-18T01:38:59.145Z,10.78
2022-10-18T01:39:59.132Z,10.76
2022-10-18T01:40:59.120Z,10.74
2022-10-18T01:41:59.110Z,10.73
2022-10-18T01:42:59.144Z,10.73
2022-10-18T01:43:59.090Z,10.71
2022-10-18T01:44:59.078Z,10.70
2022-10-18T01:45:59.079Z,10.66
2022-10-18T01:46:59.055Z,10.66
2022-10-18T01:47:59.048Z,10.67
2022-10-18T01:48:59.048Z,10.68
2022-10-18T01:49:59.029Z,10.67
2022-10-18T01:50:59.020Z,10.68
2022-10-18T01:51:59.065Z,10.66
2022-10-18T01:52:59.023Z,10.66
2022-10-18T01:53:58.985Z,10.64
2022-10-18T01:54:58.970Z,10.64
2022-10-18T01:55:58.975Z,10.64
2022-10-18T01:56:58.954Z,10.64
2022-10-18T01:57:58.945Z,10.64
2022-10-18T01:58:58.930Z,10.66
2022-10-18T01:59:58.926Z,10.63
2022-10-18T02:00:58.965Z,10.63
2022-10-18T02:01:58.903Z,10.64
2022-10-18T02:02:58.896Z,10.63
2022-10-18T02:03:58.878Z,10.61
2022-10-18T02:04:58.866Z,10.60
2022-10-18T02:05:58.858Z,10.55
2022-10-18T02:06:58.856Z,10.55
2022-10-18T02:08:12.176Z,10.52
2022-10-18T02:08:58.829Z,10.48
2022-10-18T02:09:58.854Z,10.48
2022-10-18T02:10:58.805Z,10.45
2022-10-18T02:11:58.804Z,10.45
2022-10-18T02:12:58.783Z,10.44
2022-10-18T02:13:58.773Z,10.44
2022-10-18T02:14:58.760Z,10.42
2022-10-18T02:15:58.753Z,10.47
2022-10-18T02:16:58.738Z,10.51
2022-10-18T02:17:58.746Z,10.52
2022-10-18T02:18:58.715Z,10.53
2022-10-18T02:19:58.708Z,10.53
2022-10-18T02:20:58.696Z,10.53
2022-10-18T02:21:58.685Z,10.51
2022-10-18T02:22:58.672Z,10.51
2022-10-18T02:23:58.676Z,10.48
2022-10-18T02:24:58.654Z,10.45
2022-10-18T02:25:58.646Z,10.45
2022-10-18T02:26:58.633Z,10.47
2022-10-18T02:27:58.637Z,10.44
2022-10-18T02:28:58.611Z,10.44
2022-10-18T02:29:58.735Z,10.44
2022-10-18T02:30:57.588Z,10.41
2022-10-18T02:31:58.581Z,10.42
2022-10-18T02:32:58.579Z,10.42
2022-10-18T02:33:58.571Z,10.41
2022-10-18T02:34:58.548Z,10.41
2022-10-18T02:35:58.541Z,10.40
2022-10-18T02:36:58.530Z,10.40
2022-10-18T02:37:58.522Z,10.38
2022-10-18T02:38:58.517Z,10.33
2022-10-18T02:39:58.509Z,10.33
2022-10-18T02:40:58.484Z,10.30
2022-10-18T02:41:58.477Z,10.34
2022-10-18T02:42:58.470Z,10.32
2022-10-18T02:43:58.456Z,10.30
2022-10-18T02:44:58.450Z,10.33
2022-10-18T02:45:58.434Z,10.32
2022-10-18T02:46:58.420Z,10.33
2022-10-18T02:47:58.425Z,10.32
2022-10-18T02:48:58.410Z,10.30
2022-10-18T02:49:58.400Z,10.32
2022-10-18T02:50:58.378Z,10.32
2022-10-18T02:51:58.389Z,10.33
2022-10-18T02:52:58.357Z,10.34
2022-10-18T02:53:58.359Z,10.34
2022-10-18T02:54:58.355Z,10.34
2022-10-18T02:55:58.330Z,10.33
2022-10-18T02:56:58.317Z,10.32
2022-10-18T02:57:58.306Z,10.33
2022-10-18T02:58:58.301Z,10.29
2022-10-18T02:59:58.288Z,10.27
2022-10-18T03:00:58.282Z,10.27
2022-10-18T03:01:58.264Z,10.32
2022-10-18T03:02:58.251Z,10.30
2022-10-18T03:03:58.244Z,10.32
2022-10-18T03:04:58.265Z,10.33
2022-10-18T03:05:58.223Z,10.32
2022-10-18T03:06:58.208Z,10.32
2022-10-18T03:07:58.202Z,10.33
2022-10-18T03:08:58.189Z,10.33
2022-10-18T03:09:58.180Z,10.33
2022-10-18T03:10:58.187Z,10.30
2022-10-18T03:11:58.161Z,10.29
2022-10-18T03:12:58.174Z,10.30
2022-10-18T03:13:58.154Z,10.30
2022-10-18T03:14:58.123Z,10.32
2022-10-18T03:15:58.115Z,10.32
2022-10-18T03:16:58.119Z,10.32
2022-10-18T03:17:58.097Z,10.29
2022-10-18T03:18:58.082Z,10.30
2022-10-18T03:19:58.089Z,10.30
2022-10-18T03:20:58.061Z,10.30
2022-10-18T03:21:58.055Z,10.32
2022-10-18T03:22:58.060Z,10.30
2022-10-18T03:23:58.042Z,10.29
2022-10-18T03:24:58.021Z,10.29
2022-10-18T03:25:58.107Z,10.27
2022-10-18T03:26:57.997Z,10.26
2022-10-18T03:27:57.994Z,10.25
2022-10-18T03:28:58.046Z,10.25
2022-10-18T03:29:57.970Z,10.20
2022-10-18T03:30:57.958Z,10.22
2022-10-18T03:31:57.955Z,10.20
2022-10-18T03:32:57.936Z,10.22
2022-10-18T03:33:57.926Z,10.25
2022-10-18T03:34:57.926Z,10.26
2022-10-18T03:35:57.901Z,10.26
2022-10-18T03:37:00.998Z,10.30
2022-10-18T03:37:57.900Z,10.32
2022-10-18T03:38:57.887Z,10.32
2022-10-18T03:39:57.875Z,10.33
2022-10-18T03:40:57.854Z,10.32
2022-10-18T03:41:57.839Z,10.33
2022-10-18T03:42:57.835Z,10.32
2022-10-18T03:43:57.822Z,10.32
2022-10-18T03:44:57.810Z,10.30
2022-10-18T03:45:57.808Z,10.30
2022-10-18T03:46:57.798Z,10.34
2022-10-18T03:47:57.778Z,10.34
2022-10-18T03:48:57.772Z,10.36
2022-10-18T03:49:57.755Z,10.34
2022-10-18T03:50:57.765Z,10.38
2022-10-18T03:51:57.762Z,10.40
2022-10-18T03:52:57.725Z,10.41
2022-10-18T03:53:57.713Z,10.42
2022-10-18T03:54:57.705Z,10.44
2022-10-18T03:55:57.702Z,10.47
2022-10-18T03:56:57.685Z,10.52
2022-10-18T03:57:57.682Z,10.53
2022-10-18T03:58:57.666Z,10.56
2022-10-18T03:59:57.649Z,10.60
2022-10-18T04:00:57.642Z,10.60
2022-10-18T04:01:57.680Z,10.63
2022-10-18T04:02:57.621Z,10.63
2022-10-18T04:03:57.604Z,10.66
2022-10-18T04:04:57.611Z,10.66
2022-10-18T04:05:57.586Z,10.68
2022-10-18T04:06:57.577Z,10.68
2022-10-18T04:07:57.575Z,10.68
2022-10-18T04:08:57.560Z,10.68
2022-10-18T04:09:57.543Z,10.68
2022-10-18T04:10:57.565Z,10.71
2022-10-18T04:11:57.525Z,10.70
2022-10-18T04:12:57.526Z,10.73
2022-10-18T04:13:57.556Z,10.71
2022-10-18T04:14:57.528Z,10.74
2022-10-18T04:15:57.479Z,10.78
2022-10-18T04:16:57.474Z,10.79
2022-10-18T04:17:57.461Z,10.81
2022-10-18T04:18:57.460Z,10.84
2022-10-18T04:19:57.439Z,10.85
2022-10-18T04:20:57.438Z,10.85
2022-10-18T04:21:57.417Z,10.86
2022-10-18T04:22:57.409Z,10.88
2022-10-18T04:23:57.402Z,10.91
2022-10-18T04:24:57.389Z,10.91
2022-10-18T04:25:57.375Z,10.91
2022-10-18T04:26:57.368Z,10.91
2022-10-18T04:27:57.367Z,10.92
2022-10-18T04:28:57.385Z,10.92
2022-10-18T04:29:57.340Z,10.92
2022-10-18T04:30:57.326Z,10.94
2022-10-18T04:31:57.310Z,10.94
2022-10-18T04:32:57.304Z,10.96
2022-10-18T04:33:57.289Z,10.99
2022-10-18T04:34:57.291Z,11.00
2022-10-18T04:35:57.285Z,11.03
2022-10-18T04:36:57.276Z,11.06
2022-10-18T04:37:57.247Z,11.07
2022-10-18T04:38:57.239Z,11.09
2022-10-18T04:39:57.240Z,11.11
2022-10-18T04:40:57.218Z,11.11
2022-10-18T04:41:57.207Z,11.15
2022-10-18T04:42:57.198Z,11.15
2022-10-18T04:43:57.183Z,11.15
2022-10-18T04:44:57.174Z,11.17
2022-10-18T04:45:57.190Z,11.18
2022-10-18T04:46:57.182Z,11.17
2022-10-18T04:47:57.146Z,11.17
2022-10-18T04:48:57.135Z,11.18
2022-10-18T04:49:57.118Z,11.17
2022-10-18T04:50:57.136Z,11.18
2022-10-18T04:51:57.099Z,11.19
2022-10-18T04:52:57.095Z,11.24
2022-10-18T04:53:57.079Z,11.25
2022-10-18T04:54:57.068Z,11.27
2022-10-18T04:55:57.054Z,11.27
2022-10-18T04:56:57.071Z,11.29
2022-10-18T04:57:57.035Z,11.29
2022-10-18T04:58:57.029Z,11.32
2022-10-18T04:59:57.015Z,11.33
2022-10-18T05:00:57.006Z,11.36
2022-10-18T05:01:57.146Z,11.36
2022-10-18T05:02:56.983Z,11.36
2022-10-18T05:03:56.970Z,11.37
2022-10-18T05:04:56.963Z,11.37
2022-10-18T05:06:01.890Z,11.39
2022-10-18T05:06:57.007Z,11.42
2022-10-18T05:07:56.929Z,11.42
2022-10-18T05:08:57.019Z,11.43
2022-10-18T05:09:56.907Z,11.44
2022-10-18T05:10:56.992Z,11.46
2022-10-18T05:11:56.885Z,11.47
2022-10-18T05:12:56.878Z,11.47
2022-10-18T05:13:56.887Z,11.51
2022-10-18T05:14:56.939Z,11.52
2022-10-18T05:15:56.841Z,11.52
2022-10-18T05:16:56.799Z,11.52
2022-10-18T05:17:56.791Z,11.54
2022-10-18T05:18:56.823Z,11.52
2022-10-18T05:19:56.801Z,11.55
2022-10-18T05:20:56.791Z,11.54
2022-10-18T05:21:56.726Z,11.52
2022-10-18T05:22:56.797Z,11.51
2022-10-18T05:23:56.781Z,11.51
2022-10-18T05:24:56.754Z,11.51
2022-10-18T05:25:56.696Z,11.51
2022-10-18T05:26:56.678Z,11.52
2022-10-18T05:27:56.694Z,11.52
2022-10-18T05:28:56.719Z,11.54
2022-10-18T05:29:58.880Z,11.55
2022-10-18T05:30:56.671Z,11.58
2022-10-18T05:31:56.619Z,11.60
2022-10-18T05:32:56.698Z,11.61
2022-10-18T05:33:56.599Z,11.61
2022-10-18T05:34:56.613Z,11.61
2022-10-18T05:35:56.615Z,11.60
2022-10-18T05:36:56.678Z,11.60
2022-10-18T05:37:56.570Z,11.61
2022-10-18T05:38:58.640Z,11.61
2022-10-18T05:39:56.533Z,11.62
2022-10-18T05:40:56.526Z,11.64
2022-10-18T05:41:56.537Z,11.64
2022-10-18T05:42:56.504Z,11.64
2022-10-18T05:43:56.512Z,11.65
2022-10-18T05:44:56.486Z,11.64
2022-10-18T05:45:56.470Z,11.67
2022-10-18T05:46:56.463Z,11.69
2022-10-18T05:47:56.507Z,11.72
2022-10-18T05:48:56.462Z,11.73
2022-10-18T05:49:56.473Z,11.76
2022-10-18T05:50:56.423Z,11.76
2022-10-18T05:51:55.439Z,11.79
2022-10-18T05:53:02.651Z,11.79
2022-10-18T05:53:56.397Z,11.78
2022-10-18T05:54:56.386Z,11.79
2022-10-18T05:55:56.365Z,11.82
2022-10-18T05:56:56.380Z,11.80
2022-10-18T05:57:56.342Z,11.80
2022-10-18T05:58:56.365Z,11.82
2022-10-18T05:59:56.328Z,11.82
2022-10-18T06:00:56.312Z,11.83
2022-10-18T06:01:56.331Z,11.86
2022-10-18T06:03:00.141Z,11.86
2022-10-18T06:03:56.281Z,11.86
2022-10-18T06:04:56.270Z,11.88
2022-10-18T06:05:56.276Z,11.90
2022-10-18T06:06:56.248Z,11.91
2022-10-18T06:07:56.258Z,11.95
2022-10-18T06:08:56.330Z,11.98
2022-10-18T06:09:56.213Z,12.01
2022-10-18T06:10:56.236Z,12.05
2022-10-18T06:11:56.195Z,12.09
2022-10-18T06:12:56.217Z,12.13
2022-10-18T06:13:56.193Z,12.14
2022-10-18T06:14:56.185Z,12.17
2022-10-18T06:15:56.154Z,12.21
2022-10-18T06:16:56.146Z,12.27
2022-10-18T06:18:54.353Z,12.31
2022-10-18T06:19:55.323Z,12.34
2022-10-18T06:20:55.312Z,12.37
2022-10-18T06:21:55.300Z,12.39
2022-10-18T06:22:55.286Z,12.41
2022-10-18T06:23:55.290Z,12.45
2022-10-18T06:24:57.220Z,12.46
2022-10-18T06:25:55.258Z,12.49
2022-10-18T06:26:55.285Z,12.50
2022-10-18T06:27:55.236Z,12.53
2022-10-18T06:28:55.305Z,12.56
2022-10-18T06:29:55.215Z,12.57
2022-10-18T06:30:55.202Z,12.62
2022-10-18T06:31:55.195Z,12.65
2022-10-18T06:32:55.181Z,12.67
2022-10-18T06:33:55.277Z,12.68
2022-10-18T06:34:55.249Z,12.71
2022-10-18T06:35:55.223Z,12.74
2022-10-18T06:36:56.404Z,12.77
2022-10-18T06:37:55.210Z,12.79
2022-10-18T06:38:55.188Z,12.79
2022-10-18T06:39:54.127Z,12.85
2022-10-18T06:40:55.164Z,12.87
2022-10-18T06:41:55.162Z,12.90
2022-10-18T06:43:00.232Z,12.92
2022-10-18T06:43:55.065Z,12.95
2022-10-18T06:44:55.050Z,12.95
2022-10-18T06:45:55.051Z,12.96
2022-10-18T06:46:55.047Z,13.00
2022-10-18T06:47:55.014Z,12.97
2022-10-18T06:48:55.009Z,13.01
2022-10-18T06:49:54.993Z,13.03
2022-10-18T06:50:55.007Z,13.04
2022-10-18T06:51:54.971Z,13.04
2022-10-18T06:52:54.971Z,13.07
2022-10-18T06:54:06.290Z,13.08
2022-10-18T06:54:54.950Z,13.11
2022-10-18T06:55:54.928Z,13.11
2022-10-18T06:56:54.942Z,13.11
2022-10-18T06:57:54.907Z,13.12
2022-10-18T06:58:54.972Z,13.14
2022-10-18T06:59:54.884Z,13.14
2022-10-18T07:00:54.873Z,13.19
2022-10-18T07:01:54.962Z,13.20
2022-10-18T07:02:54.852Z,13.23
2022-10-18T07:03:54.845Z,13.28
2022-10-18T07:04:54.843Z,13.30
2022-10-18T07:05:54.817Z,13.36
2022-10-18T07:06:54.810Z,13.39
2022-10-18T07:07:56.452Z,13.44
2022-10-18T07:08:54.791Z,13.46
2022-10-18T07:09:54.774Z,13.49
2022-10-18T07:10:54.767Z,13.54
2022-10-18T07:11:54.759Z,13.59
2022-10-18T07:13:07.978Z,13.63
2022-10-18T07:13:54.740Z,13.66
2022-10-18T07:14:54.727Z,13.70
2022-10-18T07:15:54.706Z,13.70
2022-10-18T07:16:54.698Z,13.75
2022-10-18T07:17:54.705Z,13.78
2022-10-18T07:18:54.681Z,13.81
2022-10-18T07:19:54.676Z,13.84
2022-10-18T07:20:54.661Z,13.88
2022-10-18T07:21:54.642Z,13.91
2022-10-18T07:22:54.635Z,13.97
2022-10-18T07:23:54.644Z,14.03
2022-10-18T07:24:54.613Z,14.04
2022-10-18T07:25:54.601Z,14.06
2022-10-18T07:26:54.591Z,14.10
2022-10-18T07:27:54.578Z,14.12
2022-10-18T07:28:54.659Z,14.14
2022-10-18T07:29:54.559Z,14.14
2022-10-18T07:30:54.546Z,14.17
2022-10-18T07:31:54.532Z,14.20
2022-10-18T07:32:54.525Z,14.20
2022-10-18T07:33:54.529Z,14.24
2022-10-18T07:34:54.546Z,14.28
2022-10-18T07:35:54.500Z,14.33
2022-10-18T07:36:54.603Z,14.36
2022-10-18T07:37:54.467Z,14.40
2022-10-18T07:38:54.461Z,14.46
2022-10-18T07:39:54.447Z,14.50
2022-10-18T07:40:54.437Z,14.47
2022-10-18T07:41:54.435Z,14.47
2022-10-18T07:42:54.427Z,14.46
2022-10-18T07:43:54.419Z,14.45
2022-10-18T07:44:54.393Z,14.45
2022-10-18T07:45:54.381Z,14.46
2022-10-18T07:46:54.391Z,14.46
2022-10-18T07:47:54.359Z,14.46
2022-10-18T07:48:54.351Z,14.47
2022-10-18T07:49:54.341Z,14.47
2022-10-18T07:50:54.331Z,14.42
2022-10-18T07:51:54.325Z,14.39
2022-10-18T07:52:54.308Z,14.36
2022-10-18T07:53:54.294Z,14.35
2022-10-18T07:54:54.306Z,14.37
2022-10-18T07:55:54.273Z,14.37
2022-10-18T07:56:54.278Z,14.40
2022-10-18T07:57:54.265Z,14.45
2022-10-18T07:58:54.250Z,14.47
2022-10-18T07:59:54.232Z,14.54
2022-10-18T08:00:54.236Z,14.58
2022-10-18T08:01:54.294Z,14.64
2022-10-18T08:02:54.203Z,14.75
2022-10-18T08:03:54.191Z,14.84
2022-10-18T08:04:54.180Z,15.03
2022-10-18T08:05:54.168Z,15.25
2022-10-18T08:06:54.171Z,15.41
2022-10-18T08:07:54.145Z,15.51
2022-10-18T08:08:54.192Z,15.62
2022-10-18T08:09:54.133Z,15.71
2022-10-18T08:10:54.156Z,15.86
2022-10-18T08:11:54.103Z,16.04
2022-10-18T08:12:54.095Z,16.24
2022-10-18T08:13:54.089Z,16.41
2022-10-18T08:14:54.071Z,16.56
2022-10-18T08:15:54.056Z,16.85
2022-10-18T08:16:54.076Z,17.26
2022-10-18T08:17:54.058Z,17.62
2022-10-18T08:18:54.029Z,17.90
2022-10-18T08:20:11.484Z,18.17
2022-10-18T08:20:54.016Z,18.30
2022-10-18T08:21:54.015Z,18.45
2022-10-18T08:22:59.083Z,18.33
2022-10-18T08:23:53.990Z,18.44
2022-10-18T08:24:53.968Z,18.50
2022-10-18T08:25:53.974Z,18.51
2022-10-18T08:26:53.948Z,18.58
2022-10-18T08:27:53.927Z,18.47
2022-10-18T08:29:09.857Z,18.70
2022-10-18T08:29:53.971Z,18.88
2022-10-18T08:30:53.898Z,19.02
2022-10-18T08:31:53.886Z,19.13
2022-10-18T08:32:53.877Z,19.26
2022-10-18T08:33:53.873Z,19.26
2022-10-18T08:34:53.853Z,19.37
2022-10-18T08:35:53.864Z,19.71
2022-10-18T08:36:53.831Z,19.95
2022-10-18T08:37:53.819Z,20.05
2022-10-18T08:38:53.808Z,20.06
2022-10-18T08:39:53.826Z,20.05
2022-10-18T08:40:53.787Z,20.16
2022-10-18T08:41:53.779Z,20.28
2022-10-18T08:42:53.765Z,20.24
2022-10-18T08:43:53.751Z,20.21
2022-10-18T08:44:53.745Z,20.32
2022-10-18T08:45:53.759Z,20.17
2022-10-18T08:46:53.735Z,20.21
2022-10-18T08:47:53.709Z,20.24
2022-10-18T08:48:53.702Z,20.35
2022-10-18T08:49:53.692Z,20.43
2022-10-18T08:50:53.706Z,20.31
2022-10-18T08:51:53.671Z,20.39
2022-10-18T08:52:53.659Z,20.38
2022-10-18T08:53:53.646Z,20.20
2022-10-18T08:54:53.640Z,20.18
2022-10-18T08:55:53.627Z,20.17
2022-10-18T08:56:53.645Z,20.06
2022-10-18T08:57:53.617Z,20.08
2022-10-18T08:58:53.596Z,19.99
2022-10-18T08:59:53.588Z,20.18
2022-10-18T09:00:53.621Z,20.62
2022-10-18T09:01:53.563Z,20.82
2022-10-18T09:02:53.621Z,21.01
2022-10-18T09:03:53.541Z,21.09
2022-10-18T09:04:53.536Z,21.12
2022-10-18T09:05:53.519Z,21.22
2022-10-18T09:06:53.511Z,21.10
2022-10-18T09:07:53.549Z,20.67
2022-10-18T09:08:53.488Z,20.57
2022-10-18T09:09:53.474Z,20.48
2022-10-18T09:10:53.509Z,20.50
2022-10-18T09:11:56.784Z,20.73
2022-10-18T09:12:53.491Z,21.19
2022-10-18T09:13:53.433Z,21.59
2022-10-18T09:14:53.424Z,21.80
2022-10-18T09:15:53.413Z,22.09
2022-10-18T09:16:53.401Z,22.28
2022-10-18T09:17:53.398Z,22.67
2022-10-18T09:18:53.404Z,22.36
2022-10-18T09:19:53.396Z,21.92
2022-10-18T09:20:53.371Z,21.72
2022-10-18T09:21:53.379Z,21.43
2022-10-18T09:22:53.371Z,21.42
2022-10-18T09:23:53.332Z,21.28
2022-10-18T09:24:53.345Z,21.25
2022-10-18T09:25:53.304Z,21.34
2022-10-18T09:26:53.295Z,21.35
2022-10-18T09:27:53.299Z,21.32
2022-10-18T09:28:53.412Z,21.32
2022-10-18T09:29:53.260Z,21.37
2022-10-18T09:30:54.825Z,21.31
2022-10-18T09:31:53.251Z,21.42
2022-10-18T09:32:53.231Z,21.52
2022-10-18T09:33:53.247Z,21.35
2022-10-18T09:34:53.209Z,21.17
2022-10-18T09:35:53.192Z,21.14
2022-10-18T09:36:53.184Z,21.21
2022-10-18T09:37:53.174Z,21.31
2022-10-18T09:38:56.053Z,21.32
2022-10-18T09:39:53.178Z,21.40
2022-10-18T09:40:53.145Z,21.47
2022-10-18T09:41:53.128Z,21.44
2022-10-18T09:42:53.118Z,21.46
2022-10-18T09:43:53.104Z,21.50
2022-10-18T09:44:53.117Z,21.56
2022-10-18T09:45:53.088Z,21.74
2022-10-18T09:46:53.076Z,21.84
2022-10-18T09:47:53.061Z,21.99
2022-10-18T09:48:53.050Z,22.07
2022-10-18T09:49:53.070Z,22.07
2022-10-18T09:50:53.031Z,22.14
2022-10-18T09:51:53.014Z,22.20
2022-10-18T09:52:53.009Z,22.17
2022-10-18T09:53:53.005Z,22.06
2022-10-18T09:54:52.988Z,21.88
2022-10-18T09:55:53.020Z,21.65
2022-10-18T09:56:52.992Z,21.62
2022-10-18T09:57:52.950Z,21.52
2022-10-18T09:58:52.941Z,21.43
2022-10-18T09:59:52.935Z,21.34
2022-10-18T10:00:52.920Z,21.40
2022-10-18T10:01:52.933Z,21.49
2022-10-18T10:02:52.945Z,21.56
2022-10-18T10:03:52.883Z,21.64
2022-10-18T10:04:52.875Z,21.67
2022-10-18T10:05:52.864Z,21.74
2022-10-18T10:06:52.881Z,21.82
2022-10-18T10:07:52.857Z,21.88
2022-10-18T10:08:52.831Z,21.90
2022-10-18T10:09:52.819Z,21.82
2022-10-18T10:10:52.810Z,21.72
2022-10-18T10:11:52.813Z,21.64
2022-10-18T10:12:52.810Z,21.54
2022-10-18T10:13:52.774Z,21.49
2022-10-18T10:14:52.771Z,21.44
2022-10-18T10:15:52.751Z,21.42
2022-10-18T10:16:52.747Z,21.40
2022-10-18T10:17:52.729Z,21.32
2022-10-18T10:18:52.742Z,21.29
2022-10-18T10:19:52.740Z,21.31
2022-10-18T10:20:52.718Z,21.35
2022-10-18T10:21:52.685Z,21.40
2022-10-18T10:22:52.680Z,21.49
2022-10-18T10:23:52.705Z,21.46
2022-10-18T10:24:52.653Z,21.47
2022-10-18T10:25:52.645Z,21.38
2022-10-18T10:26:52.651Z,21.31
2022-10-18T10:27:52.621Z,21.34
2022-10-18T10:28:52.656Z,21.28
2022-10-18T10:29:52.671Z,21.14
2022-10-18T10:30:52.599Z,21.04
2022-10-18T10:31:52.575Z,21.03
2022-10-18T10:32:52.567Z,21.09
2022-10-18T10:33:52.553Z,21.09
2022-10-18T10:34:52.628Z,21.12
2022-10-18T10:35:53.850Z,21.13
2022-10-18T10:36:52.523Z,21.16
2022-10-18T10:37:52.506Z,21.21
2022-10-18T10:38:52.499Z,21.19
2022-10-18T10:40:13.749Z,21.12
2022-10-18T10:40:52.484Z,21.09
2022-10-18T10:41:52.463Z,21.10
2022-10-18T10:42:56.870Z,21.07
2022-10-18T10:43:52.452Z,21.03
2022-10-18T10:44:52.434Z,20.91
2022-10-18T10:45:52.444Z,20.88
2022-10-18T10:46:52.440Z,20.85
2022-10-18T10:47:52.424Z,20.85
2022-10-18T10:49:04.187Z,20.79
2022-10-18T10:49:52.383Z,20.73
2022-10-18T10:50:55.026Z,20.67
2022-10-18T10:52:02.393Z,20.57
2022-10-18T10:52:52.374Z,20.43
2022-10-18T10:53:52.336Z,20.35
2022-10-18T10:54:53.872Z,20.21
2022-10-18T10:55:52.315Z,20.14
2022-10-18T10:56:52.320Z,20.14
2022-10-18T10:57:52.328Z,20.11
2022-10-18T10:58:52.335Z,20.10
2022-10-18T10:59:52.281Z,20.03
2022-10-18T11:00:52.259Z,19.98
2022-10-18T11:01:52.253Z,19.88
2022-10-18T11:03:00.600Z,19.83
2022-10-18T11:03:52.318Z,19.68
2022-10-18T11:04:52.218Z,19.59
2022-10-18T11:05:52.219Z,19.48
2022-10-18T11:06:52.195Z,19.43
2022-10-18T11:07:52.238Z,19.31
2022-10-18T11:08:52.177Z,19.22
2022-10-18T11:09:52.163Z,19.16
2022-10-18T11:10:52.152Z,19.07
2022-10-18T11:11:52.155Z,19.00
2022-10-18T11:12:52.127Z,18.94
2022-10-18T11:13:57.057Z,18.84
2022-10-18T11:14:52.113Z,18.66
2022-10-18T11:15:52.108Z,18.57
2022-10-18T11:16:52.168Z,18.47
2022-10-18T11:17:52.124Z,18.35
2022-10-18T11:18:52.063Z,18.23
2022-10-18T11:19:52.058Z,18.08
2022-10-18T11:20:52.055Z,17.97
2022-10-18T11:21:52.030Z,17.86
2022-10-18T11:22:52.018Z,17.74
2022-10-18T11:23:52.012Z,17.62
2022-10-18T11:24:51.998Z,17.48
2022-10-18T11:25:51.997Z,17.44
2022-10-18T11:26:53.777Z,17.36
2022-10-18T11:27:51.965Z,17.31
2022-10-18T11:28:52.024Z,17.26
2022-10-18T11:29:51.945Z,17.25
2022-10-18T11:30:51.940Z,17.25
2022-10-18T11:31:51.945Z,17.23
2022-10-18T11:32:51.910Z,17.22
2022-10-18T11:34:08.236Z,17.22
2022-10-18T11:34:51.894Z,17.19
2022-10-18T11:35:51.879Z,17.23
2022-10-18T11:37:02.307Z,17.22
2022-10-18T11:37:51.870Z,17.23
2022-10-18T11:38:51.843Z,17.25
2022-10-18T11:39:51.833Z,17.30
2022-10-18T11:40:51.823Z,17.36
2022-10-18T11:41:51.812Z,17.40
2022-10-18T11:42:51.809Z,17.43
2022-10-18T11:44:02.318Z,17.48
2022-10-18T11:44:51.783Z,17.48
2022-10-18T11:45:51.771Z,17.49
2022-10-18T11:46:51.755Z,17.52
2022-10-18T11:47:53.683Z,17.54
2022-10-18T11:48:51.733Z,17.55
2022-10-18T11:49:51.739Z,17.58
2022-10-18T11:50:51.730Z,17.58
2022-10-18T11:52:07.206Z,17.56
2022-10-18T11:52:51.716Z,17.54
2022-10-18T11:53:52.117Z,17.49
2022-10-18T11:54:51.674Z,17.49
2022-10-18T11:55:51.661Z,17.48
2022-10-18T11:56:51.647Z,17.51
2022-10-18T11:57:51.640Z,17.51
2022-10-18T11:58:51.650Z,17.48
2022-10-18T11:59:51.616Z,17.44
2022-10-18T12:00:51.608Z,17.44
2022-10-18T12:01:51.595Z,17.44
2022-10-18T12:02:51.613Z,17.44
2022-10-18T12:03:51.577Z,17.48
2022-10-18T12:04:58.505Z,17.49
2022-10-18T12:05:51.559Z,17.51
2022-10-18T12:06:51.540Z,17.54
2022-10-18T12:07:51.532Z,17.59
2022-10-18T12:08:51.520Z,17.64
2022-10-18T12:09:51.528Z,17.70
2022-10-18T12:11:06.867Z,17.75
2022-10-18T12:11:55.691Z,17.81
2022-10-18T12:12:51.474Z,17.90
2022-10-18T12:13:51.468Z,18.02
2022-10-18T12:14:51.451Z,18.03
2022-10-18T12:15:51.445Z,18.11
2022-10-18T12:16:58.434Z,18.12
2022-10-18T12:17:51.567Z,18.14
2022-10-18T12:19:50.395Z,18.11
2022-10-18T12:20:51.395Z,18.12
2022-10-18T12:21:51.392Z,18.08
2022-10-18T12:22:51.366Z,18.03
2022-10-18T12:23:51.369Z,17.99
2022-10-18T12:24:51.343Z,17.97
2022-10-18T12:25:51.332Z,17.97
2022-10-18T12:26:51.330Z,17.96
2022-10-18T12:27:51.398Z,17.95
2022-10-18T12:28:51.348Z,18.02
2022-10-18T12:29:51.290Z,18.08
2022-10-18T12:30:51.290Z,18.17
2022-10-18T12:31:51.272Z,18.15
2022-10-18T12:33:03.374Z,18.10
2022-10-18T12:33:51.314Z,18.11
2022-10-18T12:34:51.245Z,18.07
2022-10-18T12:35:51.226Z,18.00
2022-10-18T12:36:51.253Z,17.97
2022-10-18T12:37:51.208Z,17.96
2022-10-18T12:38:51.204Z,17.93
2022-10-18T12:40:09.077Z,17.90
2022-10-18T12:40:51.177Z,17.89
2022-10-18T12:41:51.163Z,17.87
2022-10-18T12:42:51.148Z,17.84
2022-10-18T12:43:51.151Z,17.84
2022-10-18T12:44:51.124Z,17.84
2022-10-18T12:45:51.122Z,17.81
2022-10-18T12:46:51.107Z,17.74
2022-10-18T12:47:51.201Z,17.74
2022-10-18T12:48:51.086Z,17.70
2022-10-18T12:49:51.075Z,17.68
2022-10-18T12:50:51.073Z,17.66
2022-10-18T12:51:51.055Z,17.64
2022-10-18T12:52:51.038Z,17.62
2022-10-18T12:53:51.106Z,17.58
2022-10-18T12:54:51.031Z,17.56